createdAt,value
2023-03-25T00:00:20.896Z,9.90
2023-03-25T00:02:50.663Z,9.90
2023-03-25T00:05:21.160Z,9.90
2023-03-25T00:07:53.057Z,10.00
2023-03-25T00:10:21.478Z,10.30
2023-03-25T00:12:49.441Z,10.00
2023-03-25T00:15:17.945Z,10.10
2023-03-25T00:17:46.277Z,9.90
2023-03-25T00:20:14.607Z,9.90
2023-03-25T00:22:44.249Z,9.90
2023-03-25T00:25:19.276Z,10.00
2023-03-25T00:27:49.075Z,9.90
2023-03-25T00:30:18.034Z,9.90
2023-03-25T00:32:50.220Z,9.90
2023-03-25T00:35:19.548Z,9.80
2023-03-25T00:37:57.458Z,9.90
2023-03-25T00:40:28.482Z,9.90
2023-03-25T00:42:56.728Z,9.80
2023-03-25T00:45:25.346Z,9.90
2023-03-25T00:47:53.458Z,10.10
2023-03-25T00:50:22.191Z,9.90
2023-03-25T00:52:51.613Z,9.90
2023-03-25T00:55:20.119Z,9.90
2023-03-25T00:57:49.567Z,9.90
2023-03-25T01:00:19.515Z,9.80
2023-03-25T01:02:53.793Z,9.80
2023-03-25T01:05:22.424Z,9.80
2023-03-25T01:07:51.819Z,10.60
2023-03-25T01:10:20.155Z,9.80
2023-03-25T01:12:50.019Z,9.80
2023-03-25T01:15:18.014Z,9.70
2023-03-25T01:17:46.026Z,9.70
2023-03-25T01:20:14.594Z,10.20
2023-03-25T01:22:42.553Z,9.70
2023-03-25T01:25:10.824Z,9.70
2023-03-25T01:27:38.882Z,9.90
2023-03-25T01:30:09.821Z,9.60
2023-03-25T01:32:37.901Z,9.60
2023-03-25T01:35:07.604Z,9.60
2023-03-25T01:37:36.503Z,9.60
2023-03-25T01:40:07.907Z,9.80
2023-03-25T01:42:36.148Z,9.60
2023-03-25T01:45:22.445Z,9.60
2023-03-25T01:47:56.217Z,9.60
2023-03-25T01:50:28.910Z,9.70
2023-03-25T01:52:59.670Z,9.60
2023-03-25T01:55:28.425Z,9.60
2023-03-25T01:57:59.673Z,10.00
2023-03-25T02:00:29.246Z,9.90
2023-03-25T02:03:00.470Z,9.50
2023-03-25T02:05:35.975Z,9.70
2023-03-25T02:08:09.207Z,9.60
2023-03-25T02:10:38.270Z,9.60
2023-03-25T02:13:08.634Z,9.50
2023-03-25T02:15:59.455Z,9.60
2023-03-25T02:18:38.310Z,9.60
2023-03-25T02:21:55.203Z,9.60
2023-03-25T02:24:57.846Z,9.60
2023-03-25T02:27:45.988Z,9.60
2023-03-25T02:30:39.107Z,9.70
2023-03-25T02:33:31.988Z,9.60
2023-03-25T02:36:30.299Z,9.60
2023-03-25T02:39:03.899Z,9.60
2023-03-25T02:41:40.824Z,9.60
2023-03-25T02:44:15.427Z,9.60
2023-03-25T02:46:49.000Z,9.80
2023-03-25T02:49:21.612Z,9.60
2023-03-25T02:51:56.431Z,9.60
2023-03-25T02:54:28.739Z,9.80
2023-03-25T02:56:58.441Z,9.80
2023-03-25T02:59:30.334Z,9.70
2023-03-25T03:01:59.869Z,9.80
2023-03-25T03:04:27.853Z,9.80
2023-03-25T03:06:57.995Z,9.70
2023-03-25T03:09:41.133Z,9.70
2023-03-25T03:12:22.355Z,9.70
2023-03-25T03:15:08.032Z,9.70
2023-03-25T03:17:43.916Z,9.60
2023-03-25T03:20:20.302Z,9.50
2023-03-25T03:22:53.158Z,9.40
2023-03-25T03:25:33.883Z,9.40
2023-03-25T03:28:07.247Z,9.40
2023-03-25T03:30:43.985Z,9.30
2023-03-25T03:33:21.830Z,9.40
2023-03-25T03:35:57.691Z,9.30
2023-03-25T03:38:28.851Z,9.40
2023-03-25T03:41:02.624Z,9.20
2023-03-25T03:43:36.256Z,9.20
2023-03-25T03:46:08.564Z,9.20
2023-03-25T03:48:40.332Z,9.20
2023-03-25T03:51:11.739Z,9.20
2023-03-25T03:53:43.181Z,9.30
2023-03-25T03:56:16.487Z,9.20
2023-03-25T03:58:45.272Z,9.10
2023-03-25T04:01:16.408Z,9.20
2023-03-25T04:03:51.169Z,9.10
2023-03-25T04:06:24.664Z,9.10
2023-03-25T04:08:59.754Z,9.10
2023-03-25T04:11:36.716Z,9.10
2023-03-25T04:14:06.683Z,9.20
2023-03-25T04:16:37.460Z,9.10
2023-03-25T04:19:06.318Z,9.60
2023-03-25T04:21:35.066Z,9.10
2023-03-25T04:24:04.640Z,9.10
2023-03-25T04:26:37.619Z,9.10
2023-03-25T04:29:06.021Z,9.10
2023-03-25T04:31:34.421Z,9.20
2023-03-25T04:34:04.507Z,9.00
2023-03-25T04:36:33.825Z,9.00
2023-03-25T04:39:02.252Z,9.10
2023-03-25T04:41:31.995Z,9.00
2023-03-25T04:44:01.477Z,9.00
2023-03-25T04:46:29.774Z,9.10
2023-03-25T04:48:57.973Z,9.40
2023-03-25T04:51:26.111Z,9.00
2023-03-25T04:53:54.112Z,9.00
2023-03-25T04:56:23.424Z,9.40
2023-03-25T04:58:51.734Z,8.90
2023-03-25T05:01:30.988Z,9.00
2023-03-25T05:04:05.560Z,8.90
2023-03-25T05:06:34.476Z,8.90
2023-03-25T05:09:04.391Z,8.80
2023-03-25T05:11:34.891Z,8.80
2023-03-25T05:14:02.951Z,8.90
2023-03-25T05:16:32.363Z,9.30
2023-03-25T05:19:00.562Z,8.80
2023-03-25T05:21:28.589Z,8.80
2023-03-25T05:23:58.087Z,8.80
2023-03-25T05:26:29.456Z,8.90
2023-03-25T05:29:01.540Z,8.80
2023-03-25T05:31:29.996Z,8.90
2023-03-25T05:33:59.414Z,8.80
2023-03-25T05:36:27.599Z,8.80
2023-03-25T05:38:56.817Z,8.90
2023-03-25T05:41:32.487Z,9.00
2023-03-25T05:44:01.096Z,9.00
2023-03-25T05:46:30.751Z,8.80
2023-03-25T05:49:01.947Z,8.90
2023-03-25T05:51:33.763Z,8.90
2023-03-25T05:54:02.248Z,8.90
2023-03-25T05:56:31.200Z,8.90
2023-03-25T05:58:59.700Z,8.90
2023-03-25T06:04:02.401Z,8.90
2023-03-25T06:06:32.345Z,8.90
2023-03-25T06:09:00.585Z,8.90
2023-03-25T06:11:29.561Z,9.00
2023-03-25T06:14:02.770Z,8.90
2023-03-25T06:16:31.540Z,9.30
2023-03-25T06:19:01.351Z,8.90
2023-03-25T06:21:32.833Z,9.00
2023-03-25T06:24:01.793Z,9.00
2023-03-25T06:26:30.126Z,9.00
2023-03-25T06:28:58.469Z,9.00
2023-03-25T06:31:27.815Z,9.00
2023-03-25T06:33:57.014Z,9.10
2023-03-25T06:36:27.352Z,9.10
2023-03-25T06:38:55.804Z,9.10
2023-03-25T06:41:25.168Z,9.10
2023-03-25T06:43:53.411Z,9.10
2023-03-25T06:46:21.794Z,9.20
2023-03-25T06:48:50.667Z,9.20
2023-03-25T06:51:18.598Z,9.30
2023-03-25T06:53:48.003Z,9.30
2023-03-25T06:56:17.548Z,9.20
2023-03-25T06:58:46.757Z,9.30
2023-03-25T07:01:15.278Z,9.30
2023-03-25T07:03:43.458Z,9.30
2023-03-25T07:06:17.621Z,9.30
2023-03-25T07:08:47.301Z,9.40
2023-03-25T07:11:17.403Z,9.40
2023-03-25T07:13:45.644Z,9.40
2023-03-25T07:16:14.604Z,9.40
2023-03-25T07:18:43.045Z,9.50
2023-03-25T07:21:11.391Z,9.50
2023-03-25T07:23:39.541Z,9.50
2023-03-25T07:26:09.576Z,9.60
2023-03-25T07:28:39.031Z,9.60
2023-03-25T07:31:08.869Z,9.60
2023-03-25T07:33:37.258Z,9.60
2023-03-25T07:36:07.703Z,9.70
2023-03-25T07:38:36.931Z,9.70
2023-03-25T07:41:11.388Z,9.70
2023-03-25T07:43:39.709Z,9.70
2023-03-25T07:46:08.431Z,9.70
2023-03-25T07:48:37.105Z,9.80
2023-03-25T07:51:05.725Z,9.80
2023-03-25T07:53:33.952Z,9.80
2023-03-25T07:56:02.411Z,9.80
2023-03-25T07:58:32.377Z,9.80
2023-03-25T08:01:00.827Z,9.90
2023-03-25T08:03:29.135Z,9.90
2023-03-25T08:05:57.610Z,9.90
2023-03-25T08:08:26.093Z,9.90
2023-03-25T08:10:54.597Z,10.00
2023-03-25T08:13:23.250Z,10.00
2023-03-25T08:15:53.628Z,10.00
2023-03-25T08:18:22.053Z,10.10
2023-03-25T08:20:50.860Z,10.10
2023-03-25T08:23:20.196Z,10.10
2023-03-25T08:25:50.465Z,10.20
2023-03-25T08:28:22.519Z,10.30
2023-03-25T08:30:55.958Z,10.40
2023-03-25T08:33:27.093Z,10.40
2023-03-25T08:35:58.078Z,10.40
2023-03-25T08:38:33.893Z,10.50
2023-03-25T08:41:02.819Z,10.50
2023-03-25T08:43:31.085Z,10.50
2023-03-25T08:46:00.800Z,10.50
2023-03-25T08:48:29.137Z,10.60
2023-03-25T08:50:57.332Z,10.60
2023-03-25T08:53:26.608Z,10.60
2023-03-25T08:55:54.892Z,10.60
2023-03-25T08:58:23.318Z,10.60
2023-03-25T09:00:54.465Z,10.70
2023-03-25T09:03:24.759Z,10.70
2023-03-25T09:05:53.255Z,10.70
2023-03-25T09:08:21.720Z,10.70
2023-03-25T09:10:50.010Z,10.70
2023-03-25T09:13:18.219Z,10.70
2023-03-25T09:15:47.538Z,10.80
2023-03-25T09:18:16.737Z,10.80
2023-03-25T09:20:47.931Z,10.80
2023-03-25T09:23:16.279Z,10.90
2023-03-25T09:25:44.539Z,10.90
2023-03-25T09:28:12.709Z,10.90
2023-03-25T09:30:41.252Z,11.00
2023-03-25T09:33:09.473Z,10.90
2023-03-25T09:35:37.831Z,11.10
2023-03-25T09:38:07.648Z,11.00
2023-03-25T09:40:36.332Z,11.10
2023-03-25T09:43:19.187Z,11.10
2023-03-25T09:45:48.542Z,11.20
2023-03-25T09:48:27.069Z,11.20
2023-03-25T09:50:55.099Z,11.30
2023-03-25T09:53:30.452Z,11.30
2023-03-25T09:55:59.732Z,11.50
2023-03-25T09:58:39.914Z,11.60
2023-03-25T10:01:18.924Z,11.50
2023-03-25T10:03:56.924Z,11.60
2023-03-25T10:06:26.713Z,11.50
2023-03-25T10:09:18.229Z,11.30
2023-03-25T10:11:56.040Z,11.50
2023-03-25T10:14:28.878Z,11.50
2023-03-25T10:17:11.222Z,11.60
2023-03-25T10:19:51.160Z,11.40
2023-03-25T10:22:22.756Z,11.70
2023-03-25T10:24:57.025Z,11.70
2023-03-25T10:27:31.850Z,11.70
2023-03-25T10:30:11.232Z,11.70
2023-03-25T10:32:42.401Z,11.60
2023-03-25T10:35:17.105Z,11.70
2023-03-25T10:37:47.694Z,11.80
2023-03-25T10:40:23.275Z,11.70
2023-03-25T10:43:07.082Z,11.70
2023-03-25T10:45:36.642Z,11.80
2023-03-25T10:48:12.397Z,11.80
2023-03-25T10:50:42.792Z,11.80
2023-03-25T10:53:21.490Z,11.90
2023-03-25T10:55:58.088Z,11.90
2023-03-25T10:58:27.077Z,11.90
2023-03-25T11:00:55.204Z,12.00
2023-03-25T11:03:28.203Z,12.10
2023-03-25T11:05:57.080Z,12.10
2023-03-25T11:08:25.757Z,12.20
2023-03-25T11:10:57.983Z,12.20
2023-03-25T11:13:28.017Z,12.20
2023-03-25T11:15:59.726Z,12.20
2023-03-25T11:18:30.024Z,12.20
2023-03-25T11:21:02.113Z,12.10
2023-03-25T11:23:33.678Z,12.40
2023-03-25T11:26:08.243Z,12.20
2023-03-25T11:28:40.376Z,12.30
2023-03-25T11:31:14.935Z,12.40
2023-03-25T11:33:44.398Z,12.60
2023-03-25T11:36:21.792Z,12.60
2023-03-25T11:38:54.644Z,12.70
2023-03-25T11:41:24.433Z,12.70
2023-03-25T11:43:52.443Z,12.60
2023-03-25T11:46:22.523Z,12.60
2023-03-25T11:48:51.440Z,12.50
2023-03-25T11:51:22.948Z,12.60
2023-03-25T11:53:57.566Z,12.60
2023-03-25T11:56:34.253Z,12.60
2023-03-25T11:59:03.326Z,12.80
2023-03-25T12:01:49.210Z,12.90
2023-03-25T12:04:20.905Z,13.00
2023-03-25T12:06:58.679Z,12.90
2023-03-25T12:09:30.328Z,13.20
2023-03-25T12:12:21.641Z,13.30
2023-03-25T12:14:55.927Z,13.60
2023-03-25T12:17:30.996Z,13.50
2023-03-25T12:20:11.402Z,13.60
2023-03-25T12:22:54.140Z,13.60
2023-03-25T12:25:29.932Z,13.70
2023-03-25T12:28:16.386Z,13.80
2023-03-25T12:30:57.742Z,13.80
2023-03-25T12:33:40.501Z,13.80
2023-03-25T12:36:19.400Z,13.80
2023-03-25T12:38:58.170Z,13.80
2023-03-25T12:41:32.845Z,13.70
2023-03-25T12:44:11.218Z,13.40
2023-03-25T12:47:00.713Z,13.40
2023-03-25T12:49:46.418Z,13.40
2023-03-25T12:52:22.574Z,13.20
2023-03-25T12:55:03.791Z,13.40
2023-03-25T12:57:48.654Z,13.30
2023-03-25T13:00:29.344Z,13.30
2023-03-25T13:03:35.844Z,13.30
2023-03-25T13:06:13.673Z,13.40
2023-03-25T13:08:47.130Z,13.30
2023-03-25T13:11:19.310Z,13.10
2023-03-25T13:13:51.782Z,13.00
2023-03-25T13:16:25.001Z,13.00
2023-03-25T13:19:01.638Z,13.00
2023-03-25T13:21:32.198Z,12.80
2023-03-25T13:24:06.201Z,12.70
2023-03-25T13:26:36.076Z,12.60
2023-03-25T13:29:07.114Z,12.50
2023-03-25T13:31:40.326Z,12.30
2023-03-25T13:34:22.846Z,12.40
2023-03-25T13:36:57.887Z,12.60
2023-03-25T13:39:32.057Z,12.50
2023-03-25T13:42:06.428Z,12.30
2023-03-25T13:44:40.379Z,12.40
2023-03-25T13:47:18.104Z,12.70
2023-03-25T13:49:52.731Z,12.80
2023-03-25T13:52:21.049Z,12.90
2023-03-25T13:54:54.813Z,13.00
2023-03-25T13:57:58.768Z,13.30
2023-03-25T14:00:52.697Z,13.60
2023-03-25T14:03:57.057Z,14.00
2023-03-25T14:06:55.118Z,14.30
2023-03-25T14:09:55.579Z,14.30
2023-03-25T14:12:29.160Z,14.70
2023-03-25T14:15:04.199Z,14.80
2023-03-25T14:17:35.664Z,15.00
2023-03-25T14:20:08.356Z,15.30
2023-03-25T14:22:43.832Z,15.70
2023-03-25T14:25:22.534Z,15.70
2023-03-25T14:27:52.380Z,15.40
2023-03-25T14:30:23.485Z,15.10
2023-03-25T14:32:52.983Z,14.90
2023-03-25T14:35:50.383Z,14.80
2023-03-25T14:38:54.280Z,14.60
2023-03-25T14:41:57.142Z,14.80
2023-03-25T14:44:29.314Z,14.90
2023-03-25T14:47:25.790Z,14.70
2023-03-25T14:49:56.305Z,14.60
2023-03-25T14:52:31.372Z,14.40
2023-03-25T14:55:08.039Z,14.20
2023-03-25T14:57:42.670Z,14.00
2023-03-25T15:00:21.200Z,13.90
2023-03-25T15:02:54.460Z,13.80
2023-03-25T15:05:27.597Z,13.80
2023-03-25T15:08:00.246Z,13.70
2023-03-25T15:10:33.117Z,13.70
2023-03-25T15:13:05.038Z,13.60
2023-03-25T15:15:54.211Z,13.60
2023-03-25T15:18:56.024Z,13.60
2023-03-25T15:21:26.204Z,13.60
2023-03-25T15:24:01.569Z,13.50
2023-03-25T15:26:34.570Z,13.20
2023-03-25T15:29:31.498Z,13.10
2023-03-25T15:32:19.517Z,13.20
2023-03-25T15:35:06.330Z,13.20
2023-03-25T15:38:03.523Z,13.30
2023-03-25T15:40:35.824Z,13.20
2023-03-25T15:43:27.833Z,13.10
2023-03-25T15:46:11.049Z,13.10
2023-03-25T15:49:23.817Z,13.00
2023-03-25T15:52:04.619Z,12.80
2023-03-25T15:54:36.567Z,12.90
2023-03-25T15:57:14.492Z,12.80
2023-03-25T15:59:46.468Z,12.70
2023-03-25T16:02:22.954Z,12.60
2023-03-25T16:04:52.162Z,12.60
2023-03-25T16:07:24.364Z,12.50
2023-03-25T16:09:52.237Z,12.70
2023-03-25T16:12:22.984Z,12.60
2023-03-25T16:14:53.117Z,12.60
2023-03-25T16:17:26.314Z,12.40
2023-03-25T16:19:56.917Z,12.50
2023-03-25T16:22:28.598Z,12.50
2023-03-25T16:24:59.504Z,12.40
2023-03-25T16:27:31.533Z,12.40
2023-03-25T16:30:01.488Z,12.40
2023-03-25T16:32:34.531Z,12.30
2023-03-25T16:35:04.681Z,12.20
2023-03-25T16:37:34.189Z,12.10
2023-03-25T16:40:07.288Z,12.00
2023-03-25T16:42:36.628Z,11.90
2023-03-25T16:45:10.402Z,11.90
2023-03-25T16:47:38.900Z,11.90
2023-03-25T16:50:08.584Z,11.90
2023-03-25T16:52:38.020Z,11.90
2023-03-25T16:55:30.069Z,11.80
2023-03-25T16:58:01.488Z,11.70
2023-03-25T17:00:41.959Z,11.70
2023-03-25T17:03:15.933Z,11.70
2023-03-25T17:06:01.306Z,11.60
2023-03-25T17:08:29.627Z,11.60
2023-03-25T17:10:59.832Z,11.60
2023-03-25T17:13:32.099Z,11.50
2023-03-25T17:16:02.130Z,11.50
2023-03-25T17:18:33.246Z,11.50
2023-03-25T17:21:02.676Z,11.50
2023-03-25T17:23:37.237Z,11.40
2023-03-25T17:26:08.364Z,11.40
2023-03-25T17:28:39.973Z,11.40
2023-03-25T17:31:29.948Z,11.40
2023-03-25T17:34:03.052Z,11.30
2023-03-25T17:36:33.188Z,11.30
2023-03-25T17:39:04.512Z,11.30
2023-03-25T17:41:40.097Z,11.30
2023-03-25T17:44:09.138Z,11.20
2023-03-25T17:46:38.659Z,11.20
2023-03-25T17:49:15.914Z,11.20
2023-03-25T17:51:44.826Z,11.20
2023-03-25T17:54:13.168Z,11.10
2023-03-25T17:56:43.086Z,11.10
2023-03-25T17:59:17.993Z,11.00
2023-03-25T18:01:50.299Z,11.10
2023-03-25T18:04:19.955Z,11.00
2023-03-25T18:06:48.439Z,11.00
2023-03-25T18:09:18.537Z,11.00
2023-03-25T18:11:49.003Z,11.00
2023-03-25T18:14:17.076Z,10.90
2023-03-25T18:16:45.400Z,10.90
2023-03-25T18:19:18.047Z,10.80
2023-03-25T18:21:46.578Z,10.80
2023-03-25T18:24:15.690Z,10.70
2023-03-25T18:26:44.836Z,10.70
2023-03-25T18:29:18.288Z,10.70
2023-03-25T18:31:46.520Z,10.70
2023-03-25T18:34:17.175Z,10.80
2023-03-25T18:36:45.738Z,10.60
2023-03-25T18:39:16.736Z,10.60
2023-03-25T18:41:45.673Z,10.60
2023-03-25T18:44:14.129Z,10.50
2023-03-25T18:46:42.770Z,10.50
2023-03-25T18:49:14.263Z,10.50
2023-03-25T18:51:44.004Z,10.50
2023-03-25T18:54:12.173Z,10.60
2023-03-25T18:56:42.467Z,10.80
2023-03-25T18:59:11.633Z,10.50
2023-03-25T19:01:39.673Z,10.40
2023-03-25T19:04:09.287Z,10.40
2023-03-25T19:06:39.261Z,10.40
2023-03-25T19:09:10.089Z,10.50
2023-03-25T19:11:38.099Z,10.80
2023-03-25T19:14:06.152Z,10.90
2023-03-25T19:16:34.211Z,10.30
2023-03-25T19:19:04.855Z,10.30
2023-03-25T19:21:32.825Z,10.60
2023-03-25T19:24:00.770Z,10.40
2023-03-25T19:26:30.548Z,10.20
2023-03-25T19:28:58.622Z,10.20
2023-03-25T19:31:26.705Z,10.20
2023-03-25T19:33:54.769Z,10.10
2023-03-25T19:36:23.141Z,10.10
2023-03-25T19:38:53.092Z,10.10
2023-03-25T19:41:21.321Z,11.10
2023-03-25T19:43:50.779Z,10.00
2023-03-25T19:46:19.201Z,10.20
2023-03-25T19:48:47.438Z,9.90
2023-03-25T19:51:15.508Z,9.90
2023-03-25T19:53:43.560Z,10.00
2023-03-25T19:56:13.977Z,10.20
2023-03-25T19:58:42.229Z,9.90
2023-03-25T20:01:12.161Z,9.90
2023-03-25T20:03:41.196Z,9.80
2023-03-25T20:06:10.002Z,9.80
2023-03-25T20:08:38.034Z,9.80
2023-03-25T20:11:10.806Z,9.80
2023-03-25T20:13:39.659Z,9.80
2023-03-25T20:16:08.931Z,9.80
2023-03-25T20:18:39.025Z,9.80
2023-03-25T20:21:08.034Z,9.80
2023-03-25T20:23:36.141Z,9.70
2023-03-25T20:26:04.453Z,9.70
2023-03-25T20:28:32.607Z,9.60
2023-03-25T20:31:00.655Z,9.80
2023-03-25T20:33:28.765Z,9.50
2023-03-25T20:35:58.275Z,9.40
2023-03-25T20:38:26.451Z,9.40
2023-03-25T20:40:55.560Z,9.50
2023-03-25T20:43:23.598Z,9.60
2023-03-25T20:45:55.626Z,9.40
2023-03-25T20:48:25.302Z,9.50
2023-03-25T20:51:01.615Z,9.20
2023-03-25T20:53:30.352Z,9.20
2023-03-25T20:56:00.089Z,9.50
2023-03-25T20:58:29.400Z,9.10
2023-03-25T21:00:59.005Z,8.90
2023-03-25T21:03:27.712Z,8.90
2023-03-25T21:06:03.057Z,9.40
2023-03-25T21:08:37.139Z,8.80
2023-03-25T21:11:06.899Z,8.80
2023-03-25T21:13:35.776Z,8.70
2023-03-25T21:16:04.588Z,8.90
2023-03-25T21:18:32.826Z,8.70
2023-03-25T21:21:02.654Z,8.60
2023-03-25T21:23:32.110Z,8.60
2023-03-25T21:26:09.112Z,8.70
2023-03-25T21:28:38.883Z,8.50
2023-03-25T21:31:09.121Z,8.50
2023-03-25T21:33:38.581Z,8.50
2023-03-25T21:36:09.110Z,8.60
2023-03-25T21:38:37.816Z,8.50
2023-03-25T21:41:09.521Z,8.50
2023-03-25T21:43:42.292Z,8.60
2023-03-25T21:46:11.518Z,8.70
2023-03-25T21:48:44.758Z,8.80
2023-03-25T21:51:15.544Z,8.50
2023-03-25T21:53:45.484Z,8.60
2023-03-25T21:56:19.474Z,8.50
2023-03-25T21:58:48.589Z,8.60
2023-03-25T22:01:19.730Z,8.60
2023-03-25T22:03:48.914Z,8.50
2023-03-25T22:06:19.800Z,8.50
2023-03-25T22:08:48.469Z,8.50
2023-03-25T22:11:20.203Z,8.50
2023-03-25T22:13:48.636Z,8.60
2023-03-25T22:16:18.483Z,8.70
2023-03-25T22:18:47.527Z,8.40
2023-03-25T22:21:17.797Z,8.50
2023-03-25T22:23:47.655Z,8.40
2023-03-25T22:26:18.344Z,8.40
2023-03-25T22:28:47.640Z,8.60
2023-03-25T22:31:18.323Z,9.00
2023-03-25T22:33:49.121Z,8.40
2023-03-25T22:36:17.627Z,8.50
2023-03-25T22:38:47.617Z,8.40
2023-03-25T22:41:18.169Z,8.50
2023-03-25T22:43:48.099Z,8.50
2023-03-25T22:46:16.645Z,8.50
2023-03-25T22:48:44.779Z,8.50
2023-03-25T22:51:14.621Z,8.50
2023-03-25T22:53:42.890Z,8.80
2023-03-25T22:56:11.929Z,8.50
2023-03-25T22:58:41.968Z,8.50
2023-03-25T23:01:19.903Z,8.50
2023-03-25T23:03:48.506Z,8.50
2023-03-25T23:06:17.419Z,8.50
2023-03-25T23:08:45.646Z,8.50
2023-03-25T23:11:17.257Z,8.60
2023-03-25T23:13:49.382Z,8.60
2023-03-25T23:16:18.756Z,8.90
2023-03-25T23:18:47.480Z,8.70
2023-03-25T23:21:17.659Z,8.80
2023-03-25T23:23:52.820Z,8.60
2023-03-25T23:26:24.742Z,8.50
2023-03-25T23:29:00.714Z,8.50
2023-03-25T23:31:33.952Z,8.50
2023-03-25T23:34:05.344Z,8.60
2023-03-25T23:36:36.326Z,8.60
2023-03-25T23:39:06.481Z,8.60
2023-03-25T23:41:35.570Z,8.60
2023-03-25T23:44:06.029Z,8.70
2023-03-25T23:46:34.729Z,8.50
2023-03-25T23:49:03.778Z,8.60
2023-03-25T23:51:35.220Z,8.60
2023-03-25T23:54:04.013Z,8.50
2023-03-25T23:56:32.474Z,8.60
2023-03-25T23:59:01.637Z,8.70
